createdAt,value
2022-11-16T00:00:59.934Z,1.50
2022-11-16T00:03:27.739Z,2.03
2022-11-16T00:05:58.960Z,1.65
2022-11-16T00:08:26.726Z,2.47
2022-11-16T00:10:54.370Z,2.90
2022-11-16T00:13:22.115Z,3.60
2022-11-16T00:15:56.360Z,2.67
2022-11-16T00:18:24.343Z,1.60
2022-11-16T00:20:52.038Z,1.48
2022-11-16T00:23:19.839Z,2.22
2022-11-16T00:25:47.485Z,2.60
2022-11-16T00:28:15.254Z,2.50
2022-11-16T00:30:42.956Z,2.33
2022-11-16T00:33:10.892Z,1.17
2022-11-16T00:35:39.761Z,2.20
2022-11-16T00:38:07.499Z,2.22
2022-11-16T00:40:35.187Z,2.23
2022-11-16T00:43:02.809Z,1.95
2022-11-16T00:45:30.588Z,2.15
2022-11-16T00:48:00.606Z,2.42
2022-11-16T00:50:28.515Z,3.07
2022-11-16T00:52:56.212Z,2.67
2022-11-16T00:55:23.976Z,1.92
2022-11-16T00:57:51.647Z,2.17
2022-11-16T01:00:19.515Z,1.92
2022-11-16T01:02:47.166Z,3.33
2022-11-16T01:05:14.836Z,2.50
2022-11-16T01:07:44.923Z,2.25
2022-11-16T01:10:13.321Z,2.88
2022-11-16T01:12:41.052Z,3.33
2022-11-16T01:15:09.286Z,3.07
2022-11-16T01:17:37.609Z,2.80
2022-11-16T01:20:06.255Z,3.08
2022-11-16T01:22:35.990Z,2.33
2022-11-16T01:25:03.772Z,3.28
2022-11-16T01:27:34.371Z,2.45
2022-11-16T01:30:02.049Z,3.50
2022-11-16T01:32:29.657Z,3.05
2022-11-16T01:34:57.356Z,3.70
2022-11-16T01:37:24.939Z,2.28
2022-11-16T01:39:52.617Z,3.00
2022-11-16T01:42:24.123Z,2.65
2022-11-16T01:44:55.376Z,3.03
2022-11-16T01:47:23.027Z,2.23
2022-11-16T01:50:00.748Z,2.92
2022-11-16T01:52:30.425Z,3.00
2022-11-16T01:54:58.047Z,3.33
2022-11-16T01:57:28.396Z,3.33
2022-11-16T01:59:56.938Z,2.95
2022-11-16T02:02:24.589Z,4.03
2022-11-16T02:04:52.581Z,2.90
2022-11-16T02:07:32.605Z,3.00
2022-11-16T02:10:21.646Z,3.47
2022-11-16T02:13:15.372Z,2.67
2022-11-16T02:15:50.632Z,2.50
2022-11-16T02:18:21.285Z,2.78
2022-11-16T02:20:57.816Z,2.67
2022-11-16T02:23:44.271Z,2.50
2022-11-16T02:26:14.956Z,2.13
2022-11-16T02:28:57.883Z,2.17
2022-11-16T02:31:25.900Z,3.23
2022-11-16T02:33:53.973Z,1.70
2022-11-16T02:36:21.878Z,1.65
2022-11-16T02:38:52.153Z,2.17
2022-11-16T02:41:20.952Z,2.30
2022-11-16T02:43:50.000Z,2.53
2022-11-16T02:46:19.551Z,2.17
2022-11-16T02:48:54.122Z,2.22
2022-11-16T02:51:21.771Z,1.77
2022-11-16T02:54:00.400Z,1.75
2022-11-16T02:56:28.115Z,1.83
2022-11-16T02:58:55.951Z,2.50
2022-11-16T03:01:26.182Z,2.80
2022-11-16T03:03:55.343Z,1.50
2022-11-16T03:06:24.477Z,2.38
2022-11-16T03:09:00.138Z,2.58
2022-11-16T03:11:46.152Z,1.53
2022-11-16T03:14:15.592Z,2.15
2022-11-16T03:16:53.903Z,2.10
2022-11-16T03:19:23.435Z,2.03
2022-11-16T03:21:52.950Z,2.33
2022-11-16T03:24:20.874Z,2.30
2022-11-16T03:26:52.291Z,1.63
2022-11-16T03:29:19.960Z,1.90
2022-11-16T03:31:48.842Z,2.00
2022-11-16T03:34:16.969Z,2.63
2022-11-16T03:36:44.619Z,2.50
2022-11-16T03:39:13.581Z,1.45
2022-11-16T03:41:41.585Z,2.03
2022-11-16T03:44:11.449Z,2.25
2022-11-16T03:46:39.356Z,2.37
2022-11-16T03:49:06.989Z,2.92
2022-11-16T03:51:34.692Z,3.00
2022-11-16T03:54:02.435Z,2.43
2022-11-16T03:56:30.314Z,2.63
2022-11-16T03:58:57.965Z,2.20
2022-11-16T04:01:25.688Z,2.57
2022-11-16T04:03:53.426Z,2.50
2022-11-16T04:06:39.758Z,2.45
2022-11-16T04:09:26.191Z,3.63
2022-11-16T04:12:12.626Z,2.70
2022-11-16T04:14:59.148Z,2.53
2022-11-16T04:17:45.518Z,2.47
2022-11-16T04:20:32.002Z,3.13
2022-11-16T04:23:28.445Z,2.85
2022-11-16T04:25:56.096Z,3.20
2022-11-16T04:28:24.969Z,2.53
2022-11-16T04:31:15.181Z,3.28
2022-11-16T04:34:01.768Z,1.95
2022-11-16T04:36:48.229Z,2.83
2022-11-16T04:39:15.864Z,2.50
2022-11-16T04:42:02.303Z,2.90
2022-11-16T04:44:49.911Z,4.57
2022-11-16T04:47:17.544Z,3.07
2022-11-16T04:49:45.171Z,3.88
2022-11-16T04:52:12.832Z,4.00
2022-11-16T04:54:40.521Z,3.07
2022-11-16T04:57:08.171Z,4.03
2022-11-16T04:59:35.798Z,3.53
2022-11-16T05:02:09.473Z,3.42
2022-11-16T05:04:42.120Z,3.00
2022-11-16T05:07:13.298Z,2.42
2022-11-16T05:09:44.355Z,3.42
2022-11-16T05:12:15.075Z,3.53
2022-11-16T05:14:43.131Z,2.95
2022-11-16T05:17:10.846Z,3.40
2022-11-16T05:19:57.332Z,3.70
2022-11-16T05:22:27.998Z,3.25
2022-11-16T05:24:55.778Z,3.78
2022-11-16T05:27:23.757Z,3.13
2022-11-16T05:29:51.496Z,3.73
2022-11-16T05:32:19.680Z,3.13
2022-11-16T05:34:50.520Z,4.60
2022-11-16T05:37:18.364Z,2.47
2022-11-16T05:39:46.101Z,3.40
2022-11-16T05:42:13.709Z,3.78
2022-11-16T05:44:41.497Z,2.97
2022-11-16T05:47:09.085Z,2.90
2022-11-16T05:49:36.809Z,3.47
2022-11-16T05:52:04.556Z,3.33
2022-11-16T05:54:32.372Z,3.83
2022-11-16T05:57:00.045Z,3.63
2022-11-16T05:59:29.416Z,4.93
2022-11-16T06:01:57.997Z,3.73
2022-11-16T06:04:25.786Z,4.15
2022-11-16T06:06:53.827Z,3.95
2022-11-16T06:09:21.599Z,5.13
2022-11-16T06:11:49.254Z,3.92
2022-11-16T06:14:17.088Z,3.65
2022-11-16T06:16:44.672Z,4.00
2022-11-16T06:19:12.334Z,3.93
2022-11-16T06:21:39.954Z,3.70
2022-11-16T06:24:09.645Z,3.40
2022-11-16T06:26:37.594Z,4.00
2022-11-16T06:29:05.362Z,4.25
2022-11-16T06:31:33.053Z,4.25
2022-11-16T06:34:00.781Z,4.43
2022-11-16T06:36:28.816Z,3.78
2022-11-16T06:38:56.508Z,3.90
2022-11-16T06:41:24.203Z,5.00
2022-11-16T06:43:51.870Z,3.93
2022-11-16T06:46:19.537Z,4.63
2022-11-16T06:48:47.731Z,4.95
2022-11-16T06:51:15.408Z,5.33
2022-11-16T06:53:43.116Z,3.88
2022-11-16T06:56:10.849Z,3.72
2022-11-16T06:58:39.936Z,5.53
2022-11-16T07:01:11.131Z,3.17
2022-11-16T07:03:38.885Z,2.72
2022-11-16T07:06:09.977Z,3.95
2022-11-16T07:08:37.719Z,4.27
2022-11-16T07:11:05.695Z,4.10
2022-11-16T07:13:33.837Z,5.80
2022-11-16T07:16:02.595Z,3.87
2022-11-16T07:18:30.362Z,3.55
2022-11-16T07:20:58.033Z,3.22
2022-11-16T07:23:25.809Z,2.97
2022-11-16T07:25:53.453Z,2.95
2022-11-16T07:28:21.224Z,3.45
2022-11-16T07:30:48.953Z,3.35
2022-11-16T07:33:17.296Z,3.90
2022-11-16T07:35:44.888Z,4.30
2022-11-16T07:38:16.854Z,4.55
2022-11-16T07:40:45.896Z,4.53
2022-11-16T07:43:13.848Z,3.78
2022-11-16T07:45:41.439Z,4.60
2022-11-16T07:48:09.120Z,3.70
2022-11-16T07:50:47.805Z,3.95
2022-11-16T07:53:16.003Z,4.45
2022-11-16T07:55:43.661Z,4.43
2022-11-16T07:58:11.353Z,3.73
2022-11-16T08:00:39.059Z,3.75
2022-11-16T08:03:06.862Z,3.58
2022-11-16T08:05:35.317Z,3.97
2022-11-16T08:08:02.931Z,4.43
2022-11-16T08:10:31.362Z,4.25
2022-11-16T08:12:59.513Z,4.43
2022-11-16T08:15:27.285Z,4.47
2022-11-16T08:17:54.984Z,4.60
2022-11-16T08:20:22.575Z,3.90
2022-11-16T08:22:50.915Z,3.80
2022-11-16T08:25:19.663Z,4.38
2022-11-16T08:27:47.863Z,4.53
2022-11-16T08:30:15.514Z,3.93
2022-11-16T08:32:43.519Z,4.57
2022-11-16T08:35:11.757Z,3.83
2022-11-16T08:37:39.418Z,3.93
2022-11-16T08:40:07.335Z,2.80
2022-11-16T08:42:38.220Z,4.45
2022-11-16T08:45:08.739Z,4.00
2022-11-16T08:47:36.326Z,4.37
2022-11-16T08:50:04.331Z,4.75
2022-11-16T08:52:32.033Z,3.95
2022-11-16T08:54:59.749Z,4.00
2022-11-16T08:57:27.606Z,4.10
2022-11-16T08:59:55.290Z,4.32
2022-11-16T09:02:25.777Z,3.70
2022-11-16T09:04:53.793Z,4.00
2022-11-16T09:07:21.711Z,3.75
2022-11-16T09:09:49.488Z,3.95
2022-11-16T09:12:17.877Z,4.47
2022-11-16T09:14:45.613Z,3.65
2022-11-16T09:17:14.282Z,3.63
2022-11-16T09:19:44.163Z,4.13
2022-11-16T09:22:11.869Z,4.60
2022-11-16T09:24:40.275Z,3.85
2022-11-16T09:27:08.089Z,3.63
2022-11-16T09:29:35.786Z,3.67
2022-11-16T09:32:04.502Z,4.63
2022-11-16T09:34:32.214Z,4.28
2022-11-16T09:36:59.839Z,4.77
2022-11-16T09:39:32.655Z,4.15
2022-11-16T09:42:12.375Z,4.70
2022-11-16T09:44:45.985Z,4.10
2022-11-16T09:47:21.774Z,3.80
2022-11-16T09:50:03.757Z,4.63
2022-11-16T09:52:32.296Z,3.77
2022-11-16T09:55:00.686Z,4.85
2022-11-16T09:57:30.158Z,4.25
2022-11-16T09:59:59.406Z,4.78
2022-11-16T10:02:37.966Z,4.30
2022-11-16T10:05:34.845Z,4.22
2022-11-16T10:08:07.565Z,3.97
2022-11-16T10:10:39.192Z,3.90
2022-11-16T10:13:26.594Z,3.88
2022-11-16T10:15:54.210Z,3.60
2022-11-16T10:18:40.737Z,3.10
2022-11-16T10:21:23.451Z,4.40
2022-11-16T10:23:57.180Z,4.47
2022-11-16T10:26:28.756Z,3.50
2022-11-16T10:28:56.430Z,3.27
2022-11-16T10:31:42.483Z,3.97
2022-11-16T10:34:10.216Z,4.65
2022-11-16T10:36:37.882Z,3.53
2022-11-16T10:39:17.203Z,4.93
2022-11-16T10:41:45.641Z,4.88
2022-11-16T10:44:16.193Z,4.70
2022-11-16T10:46:44.789Z,5.15
2022-11-16T10:49:17.664Z,5.20
2022-11-16T10:51:45.340Z,4.70
2022-11-16T10:54:13.664Z,4.07
2022-11-16T10:56:42.795Z,3.78
2022-11-16T10:59:10.919Z,4.10
2022-11-16T11:01:50.250Z,4.97
2022-11-16T11:04:21.229Z,3.58
2022-11-16T11:06:51.526Z,3.95
2022-11-16T11:09:29.192Z,4.77
2022-11-16T11:12:24.563Z,5.30
2022-11-16T11:15:10.623Z,4.45
2022-11-16T11:17:40.910Z,4.68
2022-11-16T11:20:17.734Z,4.83
2022-11-16T11:22:47.762Z,5.40
2022-11-16T11:25:20.074Z,6.80
2022-11-16T11:27:47.728Z,4.90
2022-11-16T11:30:21.576Z,4.18
2022-11-16T11:32:49.320Z,4.72
2022-11-16T11:35:28.117Z,5.07
2022-11-16T11:37:56.182Z,5.93
2022-11-16T11:40:24.804Z,4.97
2022-11-16T11:43:02.239Z,5.80
2022-11-16T11:45:32.942Z,3.70
2022-11-16T11:48:04.014Z,4.72
2022-11-16T11:50:35.362Z,4.38
2022-11-16T11:53:15.303Z,5.40
2022-11-16T11:55:42.903Z,4.40
2022-11-16T11:58:12.576Z,4.22
2022-11-16T12:00:47.168Z,4.07
2022-11-16T12:03:18.051Z,3.78
2022-11-16T12:05:48.585Z,3.03
2022-11-16T12:08:22.971Z,3.58
2022-11-16T12:10:51.772Z,3.83
2022-11-16T12:13:29.699Z,3.40
2022-11-16T12:16:03.723Z,3.20
2022-11-16T12:18:46.715Z,2.87
2022-11-16T12:21:14.858Z,3.25
2022-11-16T12:23:48.371Z,3.35
2022-11-16T12:26:37.353Z,3.37
2022-11-16T12:29:05.013Z,2.85
2022-11-16T12:31:32.641Z,4.15
2022-11-16T12:34:00.452Z,3.47
2022-11-16T12:36:47.293Z,3.13
2022-11-16T12:39:15.013Z,3.83
2022-11-16T12:41:49.099Z,3.40
2022-11-16T12:44:37.077Z,3.40
2022-11-16T12:47:15.096Z,3.30
2022-11-16T12:49:42.794Z,3.10
2022-11-16T12:52:29.052Z,3.67
2022-11-16T12:57:59.046Z,3.33
2022-11-16T13:00:26.803Z,2.53
2022-11-16T13:02:54.389Z,2.40
2022-11-16T13:05:37.208Z,3.15
2022-11-16T13:08:06.548Z,3.00
2022-11-16T13:10:39.098Z,1.50
2022-11-16T13:15:59.236Z,1.98
2022-11-16T13:18:26.967Z,1.55
2022-11-16T13:21:17.109Z,1.73
2022-11-16T13:24:17.379Z,1.70
2022-11-16T13:26:53.905Z,1.83
2022-11-16T13:29:54.002Z,1.57
2022-11-16T13:32:35.048Z,2.13
2022-11-16T13:35:04.488Z,1.25
2022-11-16T13:37:35.001Z,1.57
2022-11-16T13:40:03.408Z,1.38
2022-11-16T13:42:40.503Z,1.90
2022-11-16T13:45:21.327Z,1.70
2022-11-16T13:47:58.031Z,1.50
2022-11-16T13:50:37.479Z,1.48
2022-11-16T13:53:57.508Z,1.60
2022-11-16T13:55:58.208Z,1.20
2022-11-16T13:58:26.199Z,1.52
2022-11-16T14:01:08.426Z,1.50
2022-11-16T14:03:39.428Z,1.60
2022-11-16T14:06:27.256Z,1.20
2022-11-16T14:08:55.409Z,1.20
2022-11-16T14:11:29.390Z,0.73
2022-11-16T14:13:57.279Z,1.10
2022-11-16T14:16:24.949Z,1.55
2022-11-16T14:18:53.157Z,0.85
2022-11-16T14:21:22.044Z,0.90
2022-11-16T14:23:49.816Z,0.82
2022-11-16T14:26:22.788Z,1.02
2022-11-16T14:29:02.669Z,1.10
2022-11-16T14:31:31.030Z,0.75
2022-11-16T14:33:59.629Z,0.90
2022-11-16T14:36:35.380Z,1.07
2022-11-16T14:39:15.622Z,1.23
2022-11-16T14:41:44.671Z,0.90
2022-11-16T14:44:12.316Z,1.30
2022-11-16T14:46:39.975Z,1.33
2022-11-16T14:49:08.133Z,0.93
2022-11-16T14:51:36.645Z,1.00
2022-11-16T14:54:23.242Z,0.80
2022-11-16T14:57:00.852Z,1.02
2022-11-16T14:59:29.165Z,1.10
2022-11-16T15:01:56.818Z,1.10
2022-11-16T15:04:25.240Z,1.15
2022-11-16T15:06:53.453Z,0.80
2022-11-16T15:09:28.396Z,0.93
2022-11-16T15:12:14.599Z,1.10
2022-11-16T15:14:46.676Z,0.90
2022-11-16T15:17:16.085Z,1.20
2022-11-16T15:19:43.680Z,0.97
2022-11-16T15:22:14.821Z,1.27
2022-11-16T15:24:42.461Z,1.10
2022-11-16T15:27:10.499Z,1.00
2022-11-16T15:29:38.139Z,1.00
2022-11-16T15:32:05.933Z,0.80
2022-11-16T15:34:33.691Z,0.90
2022-11-16T15:37:01.356Z,1.27
2022-11-16T15:39:29.523Z,0.70
2022-11-16T15:42:02.298Z,0.82
2022-11-16T15:44:31.322Z,0.67
2022-11-16T15:46:59.064Z,0.70
2022-11-16T15:49:33.365Z,0.80
2022-11-16T15:52:05.468Z,1.23
2022-11-16T15:54:52.334Z,1.40
2022-11-16T15:57:20.595Z,1.10
2022-11-16T15:59:51.691Z,0.90
2022-11-16T16:02:19.659Z,1.87
2022-11-16T16:04:47.329Z,1.48
2022-11-16T16:07:35.000Z,1.05
2022-11-16T16:10:22.886Z,1.40
2022-11-16T16:12:54.060Z,0.85
2022-11-16T16:15:33.842Z,0.95
2022-11-16T16:18:01.590Z,1.20
2022-11-16T16:20:30.018Z,1.10
2022-11-16T16:23:07.786Z,0.70
2022-11-16T16:25:36.025Z,0.85
2022-11-16T16:28:04.068Z,1.40
2022-11-16T16:30:31.762Z,1.30
2022-11-16T16:32:59.551Z,0.68
2022-11-16T16:35:27.507Z,0.93
2022-11-16T16:37:59.145Z,2.22
2022-11-16T16:40:26.877Z,2.13
2022-11-16T16:42:56.088Z,3.53
2022-11-16T16:45:43.585Z,2.70
2022-11-16T16:48:14.160Z,2.35
2022-11-16T16:50:41.879Z,5.40
2022-11-16T16:53:11.605Z,5.20
2022-11-16T16:55:39.557Z,4.82
2022-11-16T16:58:07.238Z,4.10
2022-11-16T17:00:35.051Z,4.73
2022-11-16T17:03:02.785Z,5.32
2022-11-16T17:05:32.884Z,5.68
2022-11-16T17:08:00.595Z,4.00
2022-11-16T17:10:28.420Z,3.10
2022-11-16T17:12:56.456Z,5.18
2022-11-16T17:15:24.234Z,5.43
2022-11-16T17:17:51.913Z,5.03
2022-11-16T17:20:19.539Z,7.70
2022-11-16T17:22:47.287Z,24.50
2022-11-16T17:25:15.091Z,6.60
2022-11-16T17:27:42.686Z,5.78
2022-11-16T17:30:10.635Z,7.22
2022-11-16T17:32:38.219Z,4.93
2022-11-16T17:35:06.107Z,5.78
2022-11-16T17:37:33.763Z,5.05
2022-11-16T17:40:01.459Z,5.57
2022-11-16T17:42:29.134Z,6.47
2022-11-16T17:44:56.952Z,7.53
2022-11-16T17:47:24.587Z,7.75
2022-11-16T17:49:52.316Z,8.67
2022-11-16T17:52:19.965Z,8.50
2022-11-16T17:54:47.619Z,7.30
2022-11-16T17:57:15.300Z,7.63
2022-11-16T17:59:43.003Z,6.45
2022-11-16T18:02:14.106Z,9.32
2022-11-16T18:04:42.904Z,6.60
2022-11-16T18:07:14.031Z,6.97
2022-11-16T18:09:41.640Z,9.30
2022-11-16T18:12:09.343Z,5.13
2022-11-16T18:14:36.997Z,7.93
2022-11-16T18:17:07.647Z,4.63
2022-11-16T18:19:35.273Z,4.70
2022-11-16T18:22:03.067Z,8.70
2022-11-16T18:24:30.948Z,11.45
2022-11-16T18:26:58.542Z,6.80
2022-11-16T18:29:26.196Z,9.05
2022-11-16T18:31:54.464Z,10.90
2022-11-16T18:34:23.123Z,5.45
2022-11-16T18:36:50.998Z,5.22
2022-11-16T18:39:18.793Z,9.53
2022-11-16T18:41:55.062Z,6.60
2022-11-16T18:44:23.361Z,8.80
2022-11-16T18:46:50.942Z,4.83
2022-11-16T18:49:18.664Z,10.80
2022-11-16T18:51:49.420Z,9.45
2022-11-16T18:54:17.201Z,10.77
2022-11-16T18:56:45.044Z,8.87
2022-11-16T18:59:12.675Z,8.98
2022-11-16T19:01:40.806Z,9.05
2022-11-16T19:04:11.553Z,10.33
2022-11-16T19:06:39.503Z,11.00
2022-11-16T19:09:09.746Z,8.15
2022-11-16T19:11:37.502Z,9.97
2022-11-16T19:14:07.854Z,6.97
2022-11-16T19:16:35.896Z,12.20
2022-11-16T19:19:03.729Z,11.80
2022-11-16T19:21:31.413Z,8.67
2022-11-16T19:23:59.107Z,8.02
2022-11-16T19:26:28.644Z,10.40
2022-11-16T19:28:56.329Z,10.40
2022-11-16T19:31:25.247Z,8.80
2022-11-16T19:33:56.296Z,7.80
2022-11-16T19:36:24.020Z,9.43
2022-11-16T19:38:51.778Z,8.77
2022-11-16T19:41:22.689Z,8.95
2022-11-16T19:43:55.137Z,8.27
2022-11-16T19:46:24.432Z,8.17
2022-11-16T19:48:52.117Z,6.28
2022-11-16T19:51:20.766Z,8.55
2022-11-16T19:53:48.586Z,14.27
2022-11-16T19:56:17.053Z,7.13
2022-11-16T19:58:44.724Z,9.45
2022-11-16T20:01:17.149Z,11.83
2022-11-16T20:03:45.314Z,6.65
2022-11-16T20:06:13.890Z,11.73
2022-11-16T20:08:43.368Z,7.55
2022-11-16T20:11:12.017Z,7.73
2022-11-16T20:13:43.180Z,10.73
2022-11-16T20:16:14.288Z,5.78
2022-11-16T20:18:42.295Z,5.77
2022-11-16T20:21:11.388Z,11.40
2022-11-16T20:23:39.326Z,7.07
2022-11-16T20:26:10.594Z,10.63
2022-11-16T20:28:38.774Z,11.63
2022-11-16T20:31:14.195Z,6.07
2022-11-16T20:33:50.601Z,8.60
2022-11-16T20:36:18.325Z,5.57
2022-11-16T20:38:45.965Z,11.52
2022-11-16T20:41:20.270Z,6.40
2022-11-16T20:43:48.069Z,9.83
2022-11-16T20:46:17.020Z,9.07
2022-11-16T20:48:45.497Z,7.70
2022-11-16T20:51:14.240Z,7.50
2022-11-16T20:53:41.911Z,6.95
2022-11-16T20:56:10.985Z,7.82
2022-11-16T20:58:38.582Z,8.30
2022-11-16T21:01:07.039Z,9.97
2022-11-16T21:03:36.235Z,8.80
2022-11-16T21:06:04.231Z,8.25
2022-11-16T21:08:31.835Z,7.20
2022-11-16T21:10:59.890Z,6.88
2022-11-16T21:13:46.427Z,7.28
2022-11-16T21:16:15.529Z,5.67
2022-11-16T21:18:43.218Z,9.43
2022-11-16T21:21:12.604Z,7.75
2022-11-16T21:23:41.145Z,8.85
2022-11-16T21:26:09.367Z,10.50
2022-11-16T21:28:36.980Z,6.68
2022-11-16T21:31:05.560Z,9.13
2022-11-16T21:33:33.576Z,11.67
2022-11-16T21:36:05.248Z,11.23
2022-11-16T21:38:33.028Z,6.85
2022-11-16T21:41:00.825Z,6.23
2022-11-16T21:43:30.158Z,8.50
2022-11-16T21:46:01.928Z,11.60
2022-11-16T21:48:29.601Z,13.52
2022-11-16T21:51:00.841Z,11.27
2022-11-16T21:53:28.526Z,10.40
2022-11-16T21:55:56.157Z,12.70
2022-11-16T21:58:26.554Z,11.17
2022-11-16T22:00:55.398Z,8.70
2022-11-16T22:03:23.749Z,6.60
2022-11-16T22:06:13.717Z,8.80
2022-11-16T22:08:41.570Z,13.05
2022-11-16T22:11:09.705Z,9.20
2022-11-16T22:13:38.176Z,6.13
2022-11-16T22:16:09.105Z,7.13
2022-11-16T22:18:36.950Z,7.40
2022-11-16T22:21:04.692Z,9.00
2022-11-16T22:23:32.623Z,6.90
2022-11-16T22:26:05.991Z,10.10
2022-11-16T22:28:33.945Z,8.00
2022-11-16T22:31:11.517Z,9.43
2022-11-16T22:33:39.733Z,6.60
2022-11-16T22:36:10.897Z,10.73
2022-11-16T22:38:38.601Z,13.30
2022-11-16T22:41:06.373Z,14.03
2022-11-16T22:43:34.407Z,10.38
2022-11-16T22:46:03.061Z,8.98
2022-11-16T22:48:34.404Z,9.20
2022-11-16T22:51:03.060Z,10.38
2022-11-16T22:53:30.893Z,9.23
2022-11-16T22:56:03.924Z,6.90
2022-11-16T22:58:31.607Z,7.13
2022-11-16T23:00:59.260Z,8.07
2022-11-16T23:03:26.961Z,6.63
2022-11-16T23:05:54.620Z,5.17
2022-11-16T23:08:25.057Z,7.35
2022-11-16T23:11:18.204Z,6.47
2022-11-16T23:14:04.487Z,5.30
2022-11-16T23:16:32.129Z,5.72
2022-11-16T23:19:00.327Z,3.88
2022-11-16T23:21:46.731Z,5.13
2022-11-16T23:24:33.556Z,5.18
2022-11-16T23:27:20.512Z,5.57
2022-11-16T23:29:48.155Z,5.03
2022-11-16T23:32:15.803Z,6.47
2022-11-16T23:34:43.551Z,5.05
2022-11-16T23:37:11.203Z,5.05
2022-11-16T23:39:38.907Z,5.40
2022-11-16T23:42:25.385Z,5.43
2022-11-16T23:44:53.202Z,5.03
2022-11-16T23:47:20.854Z,6.10
2022-11-16T23:49:48.622Z,6.07
2022-11-16T23:52:16.280Z,6.28
2022-11-16T23:54:43.968Z,6.50
2022-11-16T23:57:11.650Z,5.40
2022-11-16T23:59:39.416Z,4.95
